createdAt,value
2022-07-27T00:00:44.329Z,96.58
2022-07-27T00:01:50.554Z,96.48
2022-07-27T00:02:51.177Z,96.93
2022-07-27T00:03:46.326Z,96.83
2022-07-27T00:04:44.398Z,97.09
2022-07-27T00:05:44.257Z,97.64
2022-07-27T00:06:44.252Z,97.44
2022-07-27T00:07:44.242Z,97.44
2022-07-27T00:08:44.234Z,97.49
2022-07-27T00:09:44.248Z,97.54
2022-07-27T00:10:44.224Z,97.58
2022-07-27T00:11:44.206Z,97.69
2022-07-27T00:12:44.204Z,97.58
2022-07-27T00:13:44.191Z,97.89
2022-07-27T00:14:44.216Z,97.89
2022-07-27T00:15:44.195Z,98.29
2022-07-27T00:16:44.197Z,97.79
2022-07-27T00:17:44.165Z,98.09
2022-07-27T00:18:44.150Z,98.50
2022-07-27T00:19:44.170Z,98.19
2022-07-27T00:20:44.132Z,98.29
2022-07-27T00:21:46.493Z,98.50
2022-07-27T00:22:44.118Z,98.03
2022-07-27T00:23:44.119Z,97.89
2022-07-27T00:24:44.106Z,97.49
2022-07-27T00:25:44.121Z,97.33
2022-07-27T00:26:44.085Z,97.43
2022-07-27T00:27:44.083Z,97.63
2022-07-27T00:28:44.074Z,97.38
2022-07-27T00:29:44.065Z,97.58
2022-07-27T00:30:44.080Z,97.18
2022-07-27T00:31:44.100Z,96.72
2022-07-27T00:32:44.043Z,96.72
2022-07-27T00:33:44.028Z,97.79
2022-07-27T00:34:44.027Z,97.38
2022-07-27T00:35:44.056Z,97.33
2022-07-27T00:36:44.003Z,97.13
2022-07-27T00:37:44.002Z,97.33
2022-07-27T00:38:43.987Z,97.33
2022-07-27T00:39:43.986Z,97.63
2022-07-27T00:40:44.004Z,97.43
2022-07-27T00:41:43.968Z,97.07
2022-07-27T00:42:43.959Z,97.53
2022-07-27T00:43:43.951Z,97.58
2022-07-27T00:44:43.949Z,97.27
2022-07-27T00:45:43.957Z,97.38
2022-07-27T00:46:43.968Z,97.53
2022-07-27T00:47:43.925Z,97.63
2022-07-27T00:48:43.966Z,97.83
2022-07-27T00:49:43.907Z,97.94
2022-07-27T00:50:43.920Z,97.67
2022-07-27T00:51:43.888Z,97.73
2022-07-27T00:52:43.877Z,97.63
2022-07-27T00:53:43.870Z,97.33
2022-07-27T00:54:43.880Z,97.47
2022-07-27T00:55:43.883Z,97.53
2022-07-27T00:56:43.848Z,98.39
2022-07-27T00:57:58.162Z,98.14
2022-07-27T00:58:44.833Z,98.03
2022-07-27T00:59:43.825Z,98.54
2022-07-27T01:00:43.892Z,98.39
2022-07-27T01:01:43.925Z,98.34
2022-07-27T01:02:45.719Z,97.33
2022-07-27T01:03:43.799Z,98.39
2022-07-27T01:04:43.791Z,97.78
2022-07-27T01:05:44.219Z,98.03
2022-07-27T01:06:43.788Z,98.14
2022-07-27T01:07:43.765Z,97.53
2022-07-27T01:08:43.760Z,98.34
2022-07-27T01:09:43.750Z,98.03
2022-07-27T01:10:43.824Z,98.18
2022-07-27T01:11:43.823Z,98.18
2022-07-27T01:12:43.727Z,98.08
2022-07-27T01:13:43.718Z,97.98
2022-07-27T01:14:43.712Z,98.49
2022-07-27T01:15:43.850Z,98.08
2022-07-27T01:16:43.695Z,98.08
2022-07-27T01:17:43.684Z,98.08
2022-07-27T01:18:43.679Z,97.78
2022-07-27T01:19:43.666Z,98.08
2022-07-27T01:20:43.694Z,98.08
2022-07-27T01:21:43.654Z,98.59
2022-07-27T01:22:43.648Z,98.49
2022-07-27T01:23:43.642Z,98.18
2022-07-27T01:24:43.637Z,98.39
2022-07-27T01:25:43.650Z,98.49
2022-07-27T01:26:43.617Z,98.18
2022-07-27T01:27:43.615Z,97.38
2022-07-27T01:28:43.610Z,97.67
2022-07-27T01:29:43.603Z,97.58
2022-07-27T01:30:43.619Z,97.47
2022-07-27T01:31:43.643Z,97.88
2022-07-27T01:32:43.604Z,98.79
2022-07-27T01:33:43.574Z,97.98
2022-07-27T01:34:43.594Z,97.58
2022-07-27T01:35:43.557Z,97.58
2022-07-27T01:36:43.552Z,97.38
2022-07-27T01:37:47.601Z,97.47
2022-07-27T01:38:43.536Z,98.08
2022-07-27T01:39:44.560Z,97.78
2022-07-27T01:40:43.518Z,97.78
2022-07-27T01:41:43.513Z,97.78
2022-07-27T01:42:43.506Z,98.08
2022-07-27T01:43:43.496Z,98.08
2022-07-27T01:44:43.514Z,97.78
2022-07-27T01:45:43.481Z,98.18
2022-07-27T01:46:43.490Z,97.98
2022-07-27T01:47:43.466Z,98.08
2022-07-27T01:48:43.528Z,97.98
2022-07-27T01:49:43.470Z,97.47
2022-07-27T01:50:43.709Z,97.88
2022-07-27T01:51:43.431Z,97.47
2022-07-27T01:52:43.424Z,97.67
2022-07-27T01:53:43.415Z,97.58
2022-07-27T01:54:43.406Z,97.88
2022-07-27T01:55:43.430Z,97.42
2022-07-27T01:56:43.386Z,98.03
2022-07-27T01:57:43.382Z,98.03
2022-07-27T01:58:43.372Z,97.92
2022-07-27T01:59:43.398Z,97.42
2022-07-27T02:00:43.358Z,97.72
2022-07-27T02:01:43.472Z,97.83
2022-07-27T02:02:43.347Z,97.92
2022-07-27T02:03:43.337Z,97.62
2022-07-27T02:04:43.325Z,97.42
2022-07-27T02:05:43.525Z,97.72
2022-07-27T02:06:43.311Z,97.67
2022-07-27T02:07:43.298Z,97.42
2022-07-27T02:08:43.295Z,97.52
2022-07-27T02:09:43.284Z,97.62
2022-07-27T02:10:43.300Z,97.92
2022-07-27T02:11:43.271Z,97.62
2022-07-27T02:12:43.265Z,97.32
2022-07-27T02:13:43.238Z,97.83
2022-07-27T02:14:44.245Z,97.92
2022-07-27T02:15:44.508Z,98.03
2022-07-27T02:16:43.344Z,97.83
2022-07-27T02:17:43.223Z,97.92
2022-07-27T02:18:43.215Z,97.72
2022-07-27T02:19:43.210Z,97.83
2022-07-27T02:20:43.226Z,97.38
2022-07-27T02:21:43.187Z,97.52
2022-07-27T02:22:43.183Z,97.22
2022-07-27T02:23:43.176Z,97.72
2022-07-27T02:24:43.171Z,98.03
2022-07-27T02:25:43.190Z,97.83
2022-07-27T02:26:43.146Z,97.92
2022-07-27T02:27:43.147Z,98.03
2022-07-27T02:28:43.136Z,97.22
2022-07-27T02:29:43.133Z,97.88
2022-07-27T02:30:43.150Z,97.52
2022-07-27T02:31:43.116Z,97.83
2022-07-27T02:32:44.395Z,97.83
2022-07-27T02:33:43.102Z,98.03
2022-07-27T02:34:43.086Z,97.92
2022-07-27T02:35:44.111Z,98.03
2022-07-27T02:36:43.078Z,98.54
2022-07-27T02:37:43.066Z,98.23
2022-07-27T02:38:43.058Z,98.23
2022-07-27T02:39:43.053Z,97.52
2022-07-27T02:40:43.069Z,98.54
2022-07-27T02:41:43.032Z,98.33
2022-07-27T02:42:43.027Z,98.23
2022-07-27T02:43:43.022Z,98.13
2022-07-27T02:44:43.022Z,98.33
2022-07-27T02:45:43.029Z,98.63
2022-07-27T02:46:43.037Z,98.33
2022-07-27T02:47:42.992Z,98.13
2022-07-27T02:48:43.028Z,98.23
2022-07-27T02:49:42.975Z,98.74
2022-07-27T02:50:42.988Z,98.03
2022-07-27T02:51:42.956Z,98.23
2022-07-27T02:52:42.949Z,98.03
2022-07-27T02:53:42.939Z,98.23
2022-07-27T02:54:42.934Z,98.43
2022-07-27T02:55:42.948Z,98.54
2022-07-27T02:56:43.009Z,98.54
2022-07-27T02:57:42.913Z,97.62
2022-07-27T02:58:42.901Z,98.07
2022-07-27T02:59:42.898Z,98.18
2022-07-27T03:00:42.916Z,98.03
2022-07-27T03:01:42.919Z,98.07
2022-07-27T03:02:42.871Z,98.43
2022-07-27T03:03:42.866Z,97.83
2022-07-27T03:04:42.875Z,98.43
2022-07-27T03:05:42.880Z,98.03
2022-07-27T03:06:42.846Z,97.72
2022-07-27T03:07:42.833Z,98.03
2022-07-27T03:08:42.821Z,97.97
2022-07-27T03:09:42.813Z,98.03
2022-07-27T03:10:48.778Z,98.13
2022-07-27T03:11:43.803Z,98.13
2022-07-27T03:12:42.781Z,98.03
2022-07-27T03:13:42.785Z,98.03
2022-07-27T03:14:42.797Z,97.52
2022-07-27T03:15:42.820Z,97.92
2022-07-27T03:16:42.757Z,97.92
2022-07-27T03:17:42.753Z,97.92
2022-07-27T03:18:42.743Z,97.92
2022-07-27T03:19:42.734Z,97.92
2022-07-27T03:20:42.760Z,97.42
2022-07-27T03:21:42.723Z,97.62
2022-07-27T03:22:42.710Z,97.83
2022-07-27T03:23:42.701Z,97.83
2022-07-27T03:24:42.716Z,97.92
2022-07-27T03:25:42.710Z,97.83
2022-07-27T03:26:42.678Z,97.52
2022-07-27T03:27:42.667Z,97.92
2022-07-27T03:28:42.666Z,97.83
2022-07-27T03:29:42.655Z,97.92
2022-07-27T03:30:42.710Z,97.72
2022-07-27T03:31:42.635Z,97.72
2022-07-27T03:32:42.627Z,97.72
2022-07-27T03:33:42.621Z,97.72
2022-07-27T03:34:42.616Z,97.83
2022-07-27T03:35:42.630Z,97.87
2022-07-27T03:36:42.608Z,98.48
2022-07-27T03:37:42.588Z,98.43
2022-07-27T03:38:42.578Z,97.72
2022-07-27T03:39:42.579Z,97.67
2022-07-27T03:40:42.591Z,98.48
2022-07-27T03:41:42.558Z,98.43
2022-07-27T03:42:42.547Z,98.23
2022-07-27T03:43:42.553Z,98.43
2022-07-27T03:44:42.538Z,98.33
2022-07-27T03:45:42.598Z,98.23
2022-07-27T03:46:42.520Z,98.13
2022-07-27T03:47:42.520Z,98.03
2022-07-27T03:48:42.555Z,98.13
2022-07-27T03:49:42.500Z,98.63
2022-07-27T03:50:42.514Z,98.03
2022-07-27T03:51:42.484Z,97.47
2022-07-27T03:52:45.712Z,98.49
2022-07-27T03:53:42.464Z,97.42
2022-07-27T03:54:42.457Z,97.58
2022-07-27T03:55:42.470Z,98.39
2022-07-27T03:56:42.442Z,98.08
2022-07-27T03:57:42.437Z,98.08
2022-07-27T03:58:42.421Z,97.67
2022-07-27T03:59:42.418Z,97.88
2022-07-27T04:00:42.435Z,97.38
2022-07-27T04:01:42.520Z,97.88
2022-07-27T04:02:42.474Z,97.58
2022-07-27T04:03:44.338Z,97.47
2022-07-27T04:04:43.381Z,97.88
2022-07-27T04:05:42.403Z,98.39
2022-07-27T04:06:42.363Z,98.08
2022-07-27T04:07:42.351Z,97.78
2022-07-27T04:08:42.351Z,97.98
2022-07-27T04:09:42.357Z,97.83
2022-07-27T04:10:42.360Z,97.33
2022-07-27T04:11:43.625Z,97.78
2022-07-27T04:12:43.313Z,97.73
2022-07-27T04:13:42.309Z,97.73
2022-07-27T04:14:42.305Z,97.23
2022-07-27T04:15:42.316Z,97.63
2022-07-27T04:16:42.348Z,97.83
2022-07-27T04:17:54.662Z,97.17
2022-07-27T04:18:43.270Z,97.63
2022-07-27T04:19:42.258Z,97.63
2022-07-27T04:20:42.254Z,97.73
2022-07-27T04:21:42.271Z,97.88
2022-07-27T04:22:42.232Z,97.73
2022-07-27T04:23:42.228Z,96.97
2022-07-27T04:24:42.215Z,97.94
2022-07-27T04:25:42.213Z,97.33
2022-07-27T04:26:42.226Z,97.23
2022-07-27T04:27:42.203Z,96.92
2022-07-27T04:28:42.189Z,96.42
2022-07-27T04:29:42.181Z,96.82
2022-07-27T04:30:42.217Z,96.11
2022-07-27T04:31:43.194Z,96.62
2022-07-27T04:32:42.158Z,96.42
2022-07-27T04:33:42.155Z,96.62
2022-07-27T04:34:42.137Z,96.57
2022-07-27T04:35:42.136Z,96.51
2022-07-27T04:36:42.146Z,96.47
2022-07-27T04:37:57.877Z,96.22
2022-07-27T04:38:43.107Z,96.37
2022-07-27T04:39:42.098Z,96.22
2022-07-27T04:40:42.091Z,96.07
2022-07-27T04:41:42.106Z,96.47
2022-07-27T04:42:49.488Z,96.37
2022-07-27T04:43:43.073Z,96.17
2022-07-27T04:44:42.061Z,96.63
2022-07-27T04:45:42.111Z,95.76
2022-07-27T04:46:42.074Z,96.57
2022-07-27T04:47:42.034Z,96.78
2022-07-27T04:48:42.109Z,96.12
2022-07-27T04:49:43.019Z,96.53
2022-07-27T04:50:42.021Z,95.51
2022-07-27T04:51:42.031Z,95.92
2022-07-27T04:52:41.996Z,95.21
2022-07-27T04:53:53.827Z,94.60
2022-07-27T04:54:42.974Z,94.81
2022-07-27T04:55:41.966Z,95.11
2022-07-27T04:56:41.987Z,94.91
2022-07-27T04:57:41.966Z,94.20
2022-07-27T04:58:41.945Z,94.10
2022-07-27T04:59:41.934Z,94.91
2022-07-27T05:00:41.936Z,94.06
2022-07-27T05:01:41.997Z,94.10
2022-07-27T05:02:41.916Z,94.76
2022-07-27T05:03:41.940Z,94.96
2022-07-27T05:04:41.904Z,94.46
2022-07-27T05:05:49.774Z,93.55
2022-07-27T05:06:42.906Z,91.73
2022-07-27T05:07:41.872Z,89.95
2022-07-27T05:08:41.869Z,91.27
2022-07-27T05:09:41.859Z,91.63
2022-07-27T05:10:41.856Z,91.02
2022-07-27T05:11:41.873Z,91.16
2022-07-27T05:12:42.837Z,91.16
2022-07-27T05:13:41.828Z,91.57
2022-07-27T05:14:41.824Z,91.02
2022-07-27T05:15:54.967Z,92.03
2022-07-27T05:16:42.897Z,92.03
2022-07-27T05:17:41.807Z,90.86
2022-07-27T05:18:41.796Z,91.63
2022-07-27T05:19:41.782Z,89.10
2022-07-27T05:20:41.779Z,89.30
2022-07-27T05:21:41.804Z,88.59
2022-07-27T05:22:41.814Z,89.81
2022-07-27T05:23:41.750Z,89.81
2022-07-27T05:24:41.809Z,88.49
2022-07-27T05:25:41.735Z,88.19
2022-07-27T05:26:41.729Z,88.19
2022-07-27T05:27:54.679Z,87.99
2022-07-27T05:28:42.715Z,88.65
2022-07-27T05:29:41.705Z,87.99
2022-07-27T05:30:41.696Z,87.95
2022-07-27T05:31:41.708Z,87.44
2022-07-27T05:32:41.711Z,87.13
2022-07-27T05:33:45.197Z,85.82
2022-07-27T05:34:43.663Z,83.94
2022-07-27T05:35:41.664Z,85.46
2022-07-27T05:36:41.652Z,85.46
2022-07-27T05:37:41.663Z,85.76
2022-07-27T05:38:41.631Z,85.46
2022-07-27T05:39:41.625Z,85.46
2022-07-27T05:40:41.629Z,86.07
2022-07-27T05:41:41.604Z,84.45
2022-07-27T05:42:41.632Z,82.62
2022-07-27T05:43:41.589Z,84.41
2022-07-27T05:44:41.580Z,85.93
2022-07-27T05:45:41.646Z,84.27
2022-07-27T05:46:41.570Z,84.31
2022-07-27T05:47:41.588Z,81.74
2022-07-27T05:48:41.599Z,81.88
2022-07-27T05:49:41.545Z,81.98
2022-07-27T05:50:41.534Z,84.77
2022-07-27T05:51:41.529Z,81.94
2022-07-27T05:52:41.545Z,80.93
2022-07-27T05:53:41.511Z,82.24
2022-07-27T05:54:41.499Z,84.06
2022-07-27T05:55:58.350Z,81.90
2022-07-27T05:56:42.483Z,80.45
2022-07-27T05:57:41.501Z,81.67
2022-07-27T05:58:41.482Z,81.02
2022-07-27T05:59:41.464Z,80.01
2022-07-27T06:00:41.502Z,79.16
2022-07-27T06:01:41.443Z,79.93
2022-07-27T06:02:41.462Z,76.37
2022-07-27T06:03:41.498Z,76.97
2022-07-27T06:04:41.428Z,76.97
2022-07-27T06:05:41.413Z,76.00
2022-07-27T06:06:41.407Z,76.27
2022-07-27T06:07:41.421Z,75.93
2022-07-27T06:08:41.389Z,71.91
2022-07-27T06:09:41.380Z,74.42
2022-07-27T06:10:41.376Z,75.16
2022-07-27T06:11:41.369Z,75.50
2022-07-27T06:12:41.387Z,74.93
2022-07-27T06:13:42.144Z,74.49
2022-07-27T06:14:41.341Z,75.20
2022-07-27T06:15:41.338Z,74.79
2022-07-27T06:16:41.361Z,76.07
2022-07-27T06:17:41.353Z,75.96
2022-07-27T06:18:41.314Z,73.75
2022-07-27T06:19:41.328Z,73.65
2022-07-27T06:20:41.307Z,74.76
2022-07-27T06:21:41.290Z,73.95
2022-07-27T06:22:41.312Z,73.65
2022-07-27T06:23:41.270Z,72.94
2022-07-27T06:24:41.269Z,71.84
2022-07-27T06:25:41.263Z,73.65
2022-07-27T06:26:41.246Z,72.37
2022-07-27T06:27:41.267Z,72.88
2022-07-27T06:28:41.236Z,72.51
2022-07-27T06:29:41.250Z,72.64
2022-07-27T06:30:41.214Z,72.54
2022-07-27T06:31:42.778Z,73.79
2022-07-27T06:32:42.222Z,73.79
2022-07-27T06:33:41.192Z,73.85
2022-07-27T06:34:43.162Z,73.99
2022-07-27T06:35:42.179Z,73.68
2022-07-27T06:36:41.170Z,73.28
2022-07-27T06:37:41.180Z,73.95
2022-07-27T06:38:41.150Z,73.95
2022-07-27T06:39:41.138Z,73.92
2022-07-27T06:40:41.132Z,72.61
2022-07-27T06:41:41.121Z,72.47
2022-07-27T06:42:41.142Z,70.63
2022-07-27T06:43:41.110Z,70.16
2022-07-27T06:44:41.093Z,68.95
2022-07-27T06:45:41.091Z,69.38
2022-07-27T06:46:41.124Z,71.33
2022-07-27T06:47:49.045Z,71.47
2022-07-27T06:48:42.107Z,72.41
2022-07-27T06:49:41.060Z,71.94
2022-07-27T06:50:41.058Z,71.84
2022-07-27T06:51:41.045Z,71.73
2022-07-27T06:52:41.050Z,70.76
2022-07-27T06:53:42.033Z,70.86
2022-07-27T06:54:41.019Z,71.00
2022-07-27T06:55:41.021Z,72.61
2022-07-27T06:56:41.005Z,71.80
2022-07-27T06:57:41.016Z,72.11
2022-07-27T06:58:41.987Z,71.77
2022-07-27T06:59:43.409Z,71.47
2022-07-27T07:00:41.012Z,71.40
2022-07-27T07:01:43.410Z,70.62
2022-07-27T07:02:41.983Z,69.52
2022-07-27T07:03:41.005Z,70.06
2022-07-27T07:04:40.943Z,71.00
2022-07-27T07:05:40.936Z,70.89
2022-07-27T07:06:40.926Z,71.64
2022-07-27T07:07:40.922Z,71.64
2022-07-27T07:08:40.931Z,71.44
2022-07-27T07:09:40.908Z,70.02
2022-07-27T07:10:40.887Z,70.12
2022-07-27T07:11:40.930Z,70.42
2022-07-27T07:12:40.892Z,70.89
2022-07-27T07:13:44.762Z,71.50
2022-07-27T07:14:41.859Z,71.40
2022-07-27T07:15:40.849Z,71.00
2022-07-27T07:16:40.860Z,71.80
2022-07-27T07:17:40.842Z,71.91
2022-07-27T07:18:40.867Z,70.46
2022-07-27T07:19:40.829Z,70.19
2022-07-27T07:20:40.816Z,70.73
2022-07-27T07:21:40.801Z,71.53
2022-07-27T07:22:40.790Z,71.73
2022-07-27T07:23:40.810Z,69.65
2022-07-27T07:24:40.781Z,71.47
2022-07-27T07:25:40.821Z,70.06
2022-07-27T07:26:40.795Z,69.01
2022-07-27T07:27:40.752Z,69.09
2022-07-27T07:28:40.766Z,69.99
2022-07-27T07:29:40.742Z,69.32
2022-07-27T07:30:40.732Z,70.32
2022-07-27T07:31:40.753Z,68.71
2022-07-27T07:32:40.709Z,68.44
2022-07-27T07:33:41.728Z,68.91
2022-07-27T07:34:40.698Z,68.71
2022-07-27T07:36:13.960Z,67.68
2022-07-27T07:36:41.704Z,68.78
2022-07-27T07:37:40.672Z,68.71
2022-07-27T07:38:40.688Z,68.61
2022-07-27T07:39:40.658Z,67.50
2022-07-27T07:40:43.729Z,67.50
2022-07-27T07:41:41.644Z,68.31
2022-07-27T07:42:40.634Z,66.30
2022-07-27T07:43:40.651Z,66.36
2022-07-27T07:44:40.630Z,66.67
2022-07-27T07:45:50.268Z,66.87
2022-07-27T07:46:46.822Z,66.70
2022-07-27T07:47:42.593Z,67.91
2022-07-27T07:48:40.654Z,66.90
2022-07-27T07:49:40.643Z,67.97
2022-07-27T07:50:40.572Z,67.17
2022-07-27T07:51:40.557Z,67.30
2022-07-27T07:52:40.551Z,67.80
2022-07-27T07:53:41.561Z,66.70
2022-07-27T07:54:41.541Z,67.60
2022-07-27T07:55:40.537Z,67.40
2022-07-27T07:56:40.525Z,67.27
2022-07-27T07:57:40.527Z,66.27
2022-07-27T07:58:40.535Z,66.83
2022-07-27T07:59:40.502Z,65.12
2022-07-27T08:00:40.496Z,65.93
2022-07-27T08:01:40.562Z,65.53
2022-07-27T08:02:40.520Z,65.02
2022-07-27T08:03:40.494Z,65.83
2022-07-27T08:04:40.466Z,65.70
2022-07-27T08:05:40.457Z,65.39
2022-07-27T08:06:40.440Z,64.29
2022-07-27T08:07:40.442Z,64.67
2022-07-27T08:08:40.459Z,59.61
2022-07-27T08:09:40.426Z,58.47
2022-07-27T08:10:40.429Z,58.37
2022-07-27T08:11:40.402Z,56.29
2022-07-27T08:12:40.405Z,55.21
2022-07-27T08:13:40.416Z,56.84
2022-07-27T08:14:40.384Z,56.77
2022-07-27T08:15:40.558Z,57.01
2022-07-27T08:16:40.445Z,54.86
2022-07-27T08:17:40.374Z,55.58
2022-07-27T08:18:40.374Z,56.77
2022-07-27T08:19:40.568Z,56.92
2022-07-27T08:20:41.428Z,58.55
2022-07-27T08:21:40.330Z,58.25
2022-07-27T08:22:40.319Z,58.85
2022-07-27T08:23:40.338Z,59.68
2022-07-27T08:24:40.305Z,60.06
2022-07-27T08:25:40.284Z,61.50
2022-07-27T08:26:41.294Z,61.43
2022-07-27T08:27:41.030Z,62.86
2022-07-27T08:28:40.294Z,62.89
2022-07-27T08:29:40.263Z,63.62
2022-07-27T08:30:40.256Z,63.09
2022-07-27T08:31:51.314Z,62.96
2022-07-27T08:32:41.240Z,62.30
2022-07-27T08:33:40.994Z,62.67
2022-07-27T08:34:40.228Z,62.23
2022-07-27T08:35:40.212Z,63.03
2022-07-27T08:36:40.207Z,62.79
2022-07-27T08:37:40.196Z,63.59
2022-07-27T08:38:40.228Z,63.09
2022-07-27T08:40:44.959Z,62.83
2022-07-27T08:41:41.991Z,61.72
2022-07-27T08:42:40.157Z,62.63
2022-07-27T08:43:40.184Z,62.56
2022-07-27T08:44:40.146Z,62.76
2022-07-27T08:45:40.137Z,62.96
2022-07-27T08:46:40.190Z,63.29
2022-07-27T08:47:40.120Z,64.53
2022-07-27T08:48:40.155Z,62.99
2022-07-27T08:49:43.720Z,64.70
2022-07-27T08:50:42.301Z,63.32
2022-07-27T08:51:42.800Z,64.60
2022-07-27T08:52:42.085Z,63.03
2022-07-27T08:53:53.445Z,61.19
2022-07-27T08:54:41.092Z,62.67
2022-07-27T08:55:40.061Z,61.17
2022-07-27T08:56:40.049Z,61.04
2022-07-27T08:57:40.035Z,60.36
2022-07-27T08:58:40.028Z,60.27
2022-07-27T08:59:40.046Z,58.22
2022-07-27T09:00:40.010Z,56.76
2022-07-27T09:01:40.104Z,53.66
2022-07-27T09:02:40.056Z,53.04
2022-07-27T09:03:40.011Z,51.52
2022-07-27T09:04:40.006Z,51.67
2022-07-27T09:05:39.985Z,51.40
2022-07-27T09:06:39.973Z,53.14
2022-07-27T09:07:40.000Z,55.58
2022-07-27T09:08:39.953Z,56.16
2022-07-27T09:09:39.973Z,57.24
2022-07-27T09:10:39.938Z,58.48
2022-07-27T09:11:39.948Z,58.73
2022-07-27T09:12:39.925Z,59.66
2022-07-27T09:13:39.916Z,59.64
2022-07-27T09:14:39.935Z,59.53
2022-07-27T09:16:03.137Z,60.14
2022-07-27T09:17:28.512Z,60.33
2022-07-27T09:17:48.598Z,60.53
2022-07-27T09:18:41.886Z,61.30
2022-07-27T09:19:39.893Z,62.63
2022-07-27T09:20:39.867Z,62.30
2022-07-27T09:21:39.871Z,62.40
2022-07-27T09:22:39.859Z,62.60
2022-07-27T09:23:39.858Z,62.96
2022-07-27T09:24:47.922Z,61.76
2022-07-27T09:26:41.817Z,61.72
2022-07-27T09:27:39.812Z,62.46
2022-07-27T09:28:39.830Z,61.22
2022-07-27T09:29:39.818Z,60.86
2022-07-27T09:30:39.928Z,59.94
2022-07-27T09:31:39.838Z,58.78
2022-07-27T09:32:39.768Z,57.82
2022-07-27T09:33:39.760Z,58.05
2022-07-27T09:34:39.824Z,57.78
2022-07-27T09:35:39.745Z,57.24
2022-07-27T09:36:39.742Z,56.74
2022-07-27T09:37:39.730Z,56.92
2022-07-27T09:38:39.720Z,56.35
2022-07-27T09:39:39.746Z,55.62
2022-07-27T09:40:39.710Z,55.57
2022-07-27T09:41:39.697Z,57.50
2022-07-27T09:43:12.486Z,57.60
2022-07-27T09:44:28.748Z,56.95
2022-07-27T09:44:43.771Z,55.42
2022-07-27T09:45:39.674Z,56.59
2022-07-27T09:46:39.726Z,55.17
2022-07-27T09:47:39.655Z,56.04
2022-07-27T09:48:39.719Z,55.34
2022-07-27T09:49:39.668Z,55.49
2022-07-27T09:50:48.721Z,55.36
2022-07-27T09:52:10.300Z,55.66
2022-07-27T09:52:41.619Z,55.27
2022-07-27T09:53:43.335Z,55.40
2022-07-27T09:54:40.655Z,57.78
2022-07-27T09:55:39.593Z,58.00
2022-07-27T09:56:39.582Z,59.03
2022-07-27T09:57:39.579Z,61.24
2022-07-27T09:58:39.572Z,58.63
2022-07-27T09:59:39.594Z,58.86
2022-07-27T10:00:39.555Z,60.39
2022-07-27T10:01:46.737Z,59.29
2022-07-27T10:02:41.543Z,59.89
2022-07-27T10:03:39.533Z,60.22
2022-07-27T10:04:39.616Z,60.45
2022-07-27T10:05:39.516Z,60.35
2022-07-27T10:07:01.216Z,61.02
2022-07-27T10:07:41.504Z,59.82
2022-07-27T10:08:39.493Z,59.89
2022-07-27T10:09:39.524Z,58.86
2022-07-27T10:10:39.485Z,57.63
2022-07-27T10:11:39.478Z,57.28
2022-07-27T10:12:39.510Z,56.92
2022-07-27T10:13:43.637Z,58.72
2022-07-27T10:14:39.477Z,55.79
2022-07-27T10:15:39.473Z,56.82
2022-07-27T10:16:39.435Z,56.15
2022-07-27T10:17:39.432Z,56.35
2022-07-27T10:18:39.423Z,55.94
2022-07-27T10:19:39.445Z,57.17
2022-07-27T10:20:39.405Z,57.60
2022-07-27T10:21:39.392Z,57.73
2022-07-27T10:22:39.390Z,58.81
2022-07-27T10:23:39.384Z,58.94
2022-07-27T10:24:39.399Z,58.75
2022-07-27T10:25:39.373Z,58.67
2022-07-27T10:26:39.363Z,59.45
2022-07-27T10:27:39.353Z,58.62
2022-07-27T10:28:39.341Z,58.42
2022-07-27T10:29:39.369Z,58.31
2022-07-27T10:30:39.399Z,58.49
2022-07-27T10:31:39.384Z,58.49
2022-07-27T10:32:39.311Z,59.09
2022-07-27T10:33:39.303Z,58.18
2022-07-27T10:34:39.298Z,58.18
2022-07-27T10:35:39.317Z,58.39
2022-07-27T10:36:39.280Z,58.69
2022-07-27T10:37:39.280Z,57.56
2022-07-27T10:38:39.265Z,57.10
2022-07-27T10:39:39.256Z,54.30
2022-07-27T10:40:39.277Z,56.24
2022-07-27T10:41:39.242Z,54.69
2022-07-27T10:42:39.233Z,52.74
2022-07-27T10:43:39.228Z,51.82
2022-07-27T10:44:39.230Z,51.52
2022-07-27T10:46:00.083Z,51.97
2022-07-27T10:46:40.237Z,52.92
2022-07-27T10:47:39.193Z,53.92
2022-07-27T10:48:44.206Z,55.57
2022-07-27T10:49:41.704Z,55.87
2022-07-27T10:50:39.200Z,55.60
2022-07-27T10:51:39.165Z,54.90
2022-07-27T10:52:39.154Z,55.43
2022-07-27T10:54:09.353Z,55.02
2022-07-27T10:54:41.138Z,54.80
2022-07-27T10:55:39.157Z,53.64
2022-07-27T10:56:39.121Z,52.42
2022-07-27T10:57:39.117Z,50.70
2022-07-27T10:58:39.104Z,51.09
2022-07-27T11:00:06.943Z,52.12
2022-07-27T11:00:41.128Z,52.00
2022-07-27T11:01:39.190Z,51.92
2022-07-27T11:02:40.108Z,52.14
2022-07-27T11:03:42.454Z,51.32
2022-07-27T11:04:39.096Z,51.20
2022-07-27T11:06:00.073Z,50.04
2022-07-27T11:07:15.016Z,50.04
2022-07-27T11:07:46.285Z,50.67
2022-07-27T11:08:47.037Z,50.79
2022-07-27T11:10:10.035Z,51.72
2022-07-27T11:10:41.038Z,52.52
2022-07-27T11:11:39.010Z,53.74
2022-07-27T11:12:38.995Z,54.17
2022-07-27T11:13:39.149Z,54.37
2022-07-27T11:14:38.982Z,55.17
2022-07-27T11:15:38.999Z,53.67
2022-07-27T11:16:54.531Z,54.17
2022-07-27T11:17:56.774Z,53.67
2022-07-27T11:18:40.958Z,53.85
2022-07-27T11:19:38.944Z,54.47
2022-07-27T11:20:38.960Z,54.85
2022-07-27T11:21:38.921Z,54.27
2022-07-27T11:23:09.050Z,54.00
2022-07-27T11:23:50.938Z,55.17
2022-07-27T11:24:40.904Z,53.52
2022-07-27T11:25:38.918Z,54.69
2022-07-27T11:26:38.891Z,52.84
2022-07-27T11:27:38.879Z,51.64
2022-07-27T11:28:38.875Z,51.82
2022-07-27T11:29:43.547Z,50.60
2022-07-27T11:30:39.955Z,52.09
2022-07-27T11:31:54.662Z,51.79
2022-07-27T11:32:40.854Z,52.82
2022-07-27T11:33:38.839Z,51.12
2022-07-27T11:34:38.831Z,51.52
2022-07-27T11:35:38.854Z,50.62
2022-07-27T11:36:38.817Z,50.52
2022-07-27T11:37:38.803Z,51.34
2022-07-27T11:38:38.799Z,50.52
2022-07-27T11:41:07.188Z,51.42
2022-07-27T11:42:08.129Z,51.87
2022-07-27T11:42:40.777Z,51.67
2022-07-27T11:43:38.763Z,51.79
2022-07-27T11:44:38.771Z,52.39
2022-07-27T11:45:38.826Z,52.62
2022-07-27T11:46:38.744Z,52.74
2022-07-27T11:47:38.742Z,53.64
2022-07-27T11:49:03.911Z,53.37
2022-07-27T11:49:40.740Z,53.57
2022-07-27T11:50:38.744Z,52.44
2022-07-27T11:51:38.712Z,52.34
2022-07-27T11:52:38.698Z,53.24
2022-07-27T11:53:38.685Z,54.05
2022-07-27T11:54:38.681Z,53.44
2022-07-27T11:55:38.699Z,52.52
2022-07-27T11:56:38.668Z,53.09
2022-07-27T11:57:38.660Z,52.00
2022-07-27T11:58:38.664Z,51.87
2022-07-27T11:59:38.647Z,50.15
2022-07-27T12:00:38.672Z,50.02
2022-07-27T12:01:38.626Z,50.30
2022-07-27T12:02:38.656Z,49.68
2022-07-27T12:03:47.597Z,49.98
2022-07-27T12:04:39.652Z,49.05
2022-07-27T12:05:38.683Z,47.66
2022-07-27T12:06:38.594Z,49.72
2022-07-27T12:07:38.582Z,50.17
2022-07-27T12:08:38.575Z,50.29
2022-07-27T12:09:39.099Z,50.59
2022-07-27T12:10:38.561Z,51.72
2022-07-27T12:11:38.576Z,51.42
2022-07-27T12:12:38.555Z,52.32
2022-07-27T12:13:38.538Z,52.80
2022-07-27T12:14:38.529Z,51.20
2022-07-27T12:15:46.816Z,52.19
2022-07-27T12:16:40.599Z,52.19
2022-07-27T12:17:38.508Z,51.69
2022-07-27T12:18:38.503Z,51.59
2022-07-27T12:19:38.496Z,51.77
2022-07-27T12:20:38.480Z,51.97
2022-07-27T12:21:38.500Z,51.69
2022-07-27T12:22:38.473Z,51.59
2022-07-27T12:23:38.459Z,51.89
2022-07-27T12:24:38.450Z,51.39
2022-07-27T12:25:38.451Z,51.89
2022-07-27T12:26:38.469Z,51.27
2022-07-27T12:27:38.438Z,51.87
2022-07-27T12:28:38.426Z,51.25
2022-07-27T12:29:38.414Z,52.39
2022-07-27T12:30:38.459Z,52.02
2022-07-27T12:31:38.422Z,52.42
2022-07-27T12:32:38.389Z,52.39
2022-07-27T12:33:38.391Z,52.17
2022-07-27T12:34:38.375Z,52.25
2022-07-27T12:35:41.733Z,51.34
2022-07-27T12:36:40.405Z,51.64
2022-07-27T12:37:38.362Z,51.64
2022-07-27T12:38:38.354Z,51.25
2022-07-27T12:39:38.349Z,50.42
2022-07-27T12:40:38.359Z,49.70
2022-07-27T12:41:38.348Z,49.50
2022-07-27T12:42:38.316Z,50.27
2022-07-27T12:43:38.304Z,49.03
2022-07-27T12:44:38.296Z,48.98
2022-07-27T12:45:38.343Z,47.77
2022-07-27T12:46:38.304Z,46.83
2022-07-27T12:47:38.270Z,46.72
2022-07-27T12:48:38.311Z,45.81
2022-07-27T12:49:41.940Z,45.09
2022-07-27T12:50:39.258Z,45.27
2022-07-27T12:51:38.266Z,45.51
2022-07-27T12:52:38.234Z,46.33
2022-07-27T12:53:38.232Z,46.55
2022-07-27T12:54:38.221Z,46.81
2022-07-27T12:55:38.207Z,49.50